This is the latest recevied weather packets stored in our database for station/object K9YK-13. If no packets are shown the sender has not sent any weather packets the latest 1 day(s).
| Time | Temp. | Humidity | Pressure | Rain* | Wind** | Luminosity | Snow |
|---|---|---|---|---|---|---|---|
| 1836274563 | 22.22° C | 75% | 0 hPa | 0 mm | 0 m/s | - | - |
| 1836274413 | 21.67° C | 77% | 0 hPa | 0 mm | 0 m/s | - | - |
| 1836274263 | 22.78° C | 75% | 0 hPa | 0 mm | 0 m/s | - | - |
| 1836274113 | 22.22° C | 76% | 0 hPa | 0 mm | 0 m/s | - | - |
| 1836273963 | 23.33° C | 72% | 0 hPa | 0 mm | 0 m/s | - | - |
| 1778057469 | 6.67° C | 95% | 0 hPa | 0 mm | 0 m/s | - | - |
| 1778057169 | 7.22° C | 95% | 0 hPa | 0 mm | 0 m/s | - | - |
| 1778056869 | 7.22° C | 95% | 0 hPa | 0 mm | 0 m/s | - | - |
| 1778056569 | 7.22° C | 95% | 0 hPa | 0 mm | 0 m/s | - | - |
| 1778056269 | 7.22° C | 95% | 0 hPa | 0 mm | 0 m/s | - | - |
| 1778055969 | 7.22° C | 95% | 0 hPa | 0 mm | 0 m/s | - | - |
| 1778055669 | 7.78° C | 95% | 0 hPa | 0 mm | 0 m/s | - | - |
| 1778055369 | 7.78° C | 95% | 0 hPa | 0 mm | 0 m/s | - | - |
| 1778055069 | 7.78° C | 96% | 0 hPa | 0 mm | 0 m/s | - | - |
| 1778054769 | 7.78° C | 96% | 0 hPa | 0 mm | 0 m/s | - | - |
| 1778054470 | 7.78° C | 97% | 0 hPa | 0 mm | 0 m/s | - | - |
| 1778054169 | 7.78° C | 97% | 0 hPa | 0 mm | 0 m/s | - | - |
| 1778053869 | 7.78° C | 96% | 0 hPa | 0 mm | 0 m/s | - | - |
| 1778053569 | 7.78° C | 96% | 0 hPa | 0 mm | 0 m/s | - | - |
| 1778053269 | 7.78° C | 96% | 0 hPa | 0 mm | 0 m/s | - | - |
| 1778052969 | 7.78° C | 96% | 0 hPa | 0 mm | 0 m/s | - | - |
| 1778052669 | 7.78° C | 96% | 0 hPa | 0 mm | 0 m/s | - | - |
| 1778052369 | 7.78° C | 94% | 0 hPa | 0 mm | 0 m/s | - | - |
| 1778052069 | 8.33° C | 96% | 0 hPa | 0 mm | 0 m/s | - | - |
| 1778051769 | 8.33° C | 96% | 0 hPa | 0 mm | 0 m/s | - | - |
* Rain latest hour (hover to see other rain measurements)
** Current wind speed in m/s (hover to see current wind gust speed)